EXS311 EGAA-BIKF
Flight info
| Callsign | EXS311 |
|---|---|
| Flight time | 2h 7m |
| Altitude | 32000 |
| Route | BELZU DCT MAC DCT STN DCT BARKU DCT RATSU/M080F320 DCT ALDAN DCT ASRUN ASRUN3K |
| Aircraft | B738/M-SDE2E3FGHIRWXY/LB1 |
Departure
| Time | 2026-04-27 10:57 |
|---|---|
| Airport | Belfast International Airport (EGAA) |
Arrival
| Time | 2026-04-27 13:05 |
|---|---|
| Airport | Keflavik International Airport (BIKF) |
| Time | Latitude | Longitude | Altitude | Speed | Heading |
|---|---|---|---|---|---|
| 2026-04-27 10:40 | 54.66155 | -6.21184 | 271 ft | 0 kts | 65° |
| 2026-04-27 10:47 | 54.66148 | -6.21212 | 271 ft | 4 kts | 74° |
| 2026-04-27 10:47 | 54.66145 | -6.21256 | 271 ft | 4 kts | 106° |
| 2026-04-27 10:47 | 54.66157 | -6.21287 | 278 ft | 1 kts | 155° |
| 2026-04-27 10:51 | 54.66154 | -6.21284 | 271 ft | 2 kts | 155° |
| 2026-04-27 10:51 | 54.66129 | -6.21264 | 274 ft | 5 kts | 155° |
| 2026-04-27 10:51 | 54.66102 | -6.21243 | 271 ft | 7 kts | 155° |
| 2026-04-27 10:51 | 54.66047 | -6.21172 | 271 ft | 8 kts | 97° |
| 2026-04-27 10:52 | 54.66057 | -6.21115 | 273 ft | 8 kts | 65° |
| 2026-04-27 10:52 | 54.66079 | -6.21034 | 271 ft | 7 kts | 64° |
| 2026-04-27 10:52 | 54.66100 | -6.20956 | 274 ft | 7 kts | 64° |
| 2026-04-27 10:52 | 54.66136 | -6.20822 | 271 ft | 10 kts | 66° |
| 2026-04-27 10:53 | 54.66156 | -6.20750 | 275 ft | 10 kts | 65° |
| 2026-04-27 10:53 | 54.66211 | -6.20543 | 271 ft | 9 kts | 65° |
| 2026-04-27 10:53 | 54.66238 | -6.20444 | 271 ft | 9 kts | 65° |
| 2026-04-27 10:54 | 54.66265 | -6.20348 | 272 ft | 9 kts | 64° |
| 2026-04-27 10:54 | 54.66290 | -6.20254 | 272 ft | 8 kts | 66° |
| 2026-04-27 10:54 | 54.66314 | -6.20162 | 271 ft | 9 kts | 65° |
| 2026-04-27 10:54 | 54.66344 | -6.20050 | 274 ft | 12 kts | 65° |
| 2026-04-27 10:55 | 54.66386 | -6.19895 | 271 ft | 15 kts | 68° |
| 2026-04-27 10:55 | 54.66346 | -6.19703 | 271 ft | 14 kts | 152° |
| 2026-04-27 10:55 | 54.66292 | -6.19655 | 271 ft | 8 kts | 154° |
| 2026-04-27 10:55 | 54.66264 | -6.19663 | 271 ft | 5 kts | 228° |
| 2026-04-27 10:56 | 54.66248 | -6.19725 | 271 ft | 14 kts | 246° |
| 2026-04-27 10:56 | 54.66119 | -6.20215 | 273 ft | 77 kts | 245° |
| 2026-04-27 10:56 | 54.65800 | -6.21396 | 271 ft | 135 kts | 245° |
| 2026-04-27 10:56 | 54.65350 | -6.23079 | 324 ft | 174 kts | 248° |
| 2026-04-27 10:57 | 54.64820 | -6.25054 | 829 ft | 191 kts | 248° |
| 2026-04-27 10:57 | 54.64224 | -6.27232 | 1299 ft | 207 kts | 246° |
| 2026-04-27 10:57 | 54.63828 | -6.29614 | 1784 ft | 209 kts | 271° |
| 2026-04-27 10:57 | 54.64109 | -6.32008 | 2489 ft | 205 kts | 300° |
| 2026-04-27 10:58 | 54.65156 | -6.33676 | 2958 ft | 216 kts | 335° |
| 2026-04-27 10:58 | 54.66651 | -6.34063 | 3443 ft | 222 kts | 7° |
| 2026-04-27 10:58 | 54.68185 | -6.33238 | 3703 ft | 244 kts | 21° |
| 2026-04-27 10:58 | 54.69739 | -6.31905 | 4288 ft | 252 kts | 25° |
| 2026-04-27 10:59 | 54.71299 | -6.30472 | 5004 ft | 255 kts | 25° |
| 2026-04-27 10:59 | 54.72868 | -6.29019 | 5738 ft | 258 kts | 25° |
| 2026-04-27 10:59 | 54.74475 | -6.27539 | 6350 ft | 264 kts | 25° |
| 2026-04-27 11:00 | 54.77737 | -6.24557 | 7736 ft | 267 kts | 24° |
| 2026-04-27 11:00 | 54.79389 | -6.23060 | 8434 ft | 270 kts | 24° |
| 2026-04-27 11:00 | 54.81066 | -6.21544 | 9147 ft | 272 kts | 24° |
| 2026-04-27 11:00 | 54.82750 | -6.20023 | 9865 ft | 274 kts | 23° |
| 2026-04-27 11:01 | 54.84440 | -6.18501 | 10391 ft | 284 kts | 23° |
| 2026-04-27 11:01 | 54.86286 | -6.16846 | 10539 ft | 305 kts | 24° |
| 2026-04-27 11:01 | 54.88211 | -6.15118 | 10709 ft | 325 kts | 24° |
| 2026-04-27 11:01 | 54.90281 | -6.13257 | 10861 ft | 345 kts | 24° |
| 2026-04-27 11:02 | 54.92462 | -6.11292 | 10987 ft | 362 kts | 24° |
| 2026-04-27 11:02 | 54.94736 | -6.09237 | 11260 ft | 373 kts | 24° |
| 2026-04-27 11:02 | 54.97057 | -6.07133 | 11694 ft | 378 kts | 24° |
| 2026-04-27 11:02 | 54.99392 | -6.05011 | 12303 ft | 379 kts | 24° |
| 2026-04-27 11:03 | 55.01729 | -6.02887 | 12958 ft | 379 kts | 24° |
| 2026-04-27 11:03 | 55.04070 | -6.00759 | 13567 ft | 381 kts | 24° |
| 2026-04-27 11:03 | 55.06436 | -5.98655 | 14180 ft | 382 kts | 20° |
| 2026-04-27 11:03 | 55.08973 | -5.97478 | 14713 ft | 377 kts | 2° |
| 2026-04-27 11:04 | 55.11576 | -5.97687 | 15311 ft | 375 kts | 349° |
| 2026-04-27 11:04 | 55.14065 | -5.98978 | 15943 ft | 374 kts | 334° |
| 2026-04-27 11:04 | 55.16297 | -6.01309 | 16567 ft | 375 kts | 327° |
| 2026-04-27 11:04 | 55.18458 | -6.03902 | 17121 ft | 377 kts | 326° |
| 2026-04-27 11:05 | 55.20609 | -6.06558 | 17654 ft | 379 kts | 326° |
| 2026-04-27 11:05 | 55.22764 | -6.09237 | 18208 ft | 381 kts | 326° |
| 2026-04-27 11:05 | 55.24935 | -6.11930 | 18744 ft | 383 kts | 326° |
| 2026-04-27 11:05 | 55.27114 | -6.14621 | 19204 ft | 385 kts | 326° |
| 2026-04-27 11:06 | 55.29312 | -6.17324 | 19642 ft | 387 kts | 326° |
| 2026-04-27 11:06 | 55.31524 | -6.20036 | 20085 ft | 389 kts | 326° |
| 2026-04-27 11:06 | 55.33745 | -6.22757 | 20517 ft | 391 kts | 326° |
| 2026-04-27 11:06 | 55.35982 | -6.25496 | 20939 ft | 393 kts | 326° |
| 2026-04-27 11:07 | 55.38224 | -6.28243 | 21433 ft | 393 kts | 326° |
| 2026-04-27 11:07 | 55.40466 | -6.30993 | 21864 ft | 394 kts | 326° |
| 2026-04-27 11:07 | 55.42621 | -6.33639 | 22225 ft | 397 kts | 326° |
| 2026-04-27 11:07 | 55.44913 | -6.36456 | 22595 ft | 399 kts | 326° |
| 2026-04-27 11:08 | 55.47195 | -6.39266 | 22986 ft | 401 kts | 326° |
| 2026-04-27 11:08 | 55.49455 | -6.42052 | 23355 ft | 403 kts | 326° |
| 2026-04-27 11:08 | 55.51783 | -6.44927 | 23701 ft | 405 kts | 326° |
| 2026-04-27 11:08 | 55.54093 | -6.47784 | 24048 ft | 407 kts | 326° |
| 2026-04-27 11:09 | 55.56386 | -6.50624 | 24327 ft | 408 kts | 326° |
| 2026-04-27 11:09 | 55.58714 | -6.53511 | 24632 ft | 409 kts | 326° |
| 2026-04-27 11:09 | 55.61046 | -6.56408 | 24945 ft | 411 kts | 326° |
| 2026-04-27 11:09 | 55.63384 | -6.59316 | 25251 ft | 411 kts | 326° |
| 2026-04-27 11:10 | 55.65727 | -6.62236 | 25543 ft | 412 kts | 326° |
| 2026-04-27 11:10 | 55.68075 | -6.65165 | 25814 ft | 414 kts | 326° |
| 2026-04-27 11:10 | 55.70430 | -6.68108 | 26147 ft | 413 kts | 326° |
| 2026-04-27 11:10 | 55.72773 | -6.71042 | 26579 ft | 411 kts | 326° |
| 2026-04-27 11:11 | 55.75098 | -6.73957 | 27019 ft | 408 kts | 326° |
| 2026-04-27 11:11 | 55.77415 | -6.76865 | 27277 ft | 409 kts | 326° |
| 2026-04-27 11:11 | 55.79757 | -6.79808 | 27356 ft | 415 kts | 326° |
| 2026-04-27 11:11 | 55.82116 | -6.82777 | 27655 ft | 415 kts | 326° |
| 2026-04-27 11:12 | 55.84459 | -6.85732 | 28116 ft | 411 kts | 326° |
| 2026-04-27 11:12 | 55.86783 | -6.88667 | 28630 ft | 407 kts | 326° |
| 2026-04-27 11:12 | 55.89087 | -6.91582 | 29061 ft | 406 kts | 326° |
| 2026-04-27 11:12 | 55.91384 | -6.94491 | 29430 ft | 405 kts | 326° |
| 2026-04-27 11:13 | 55.93675 | -6.97397 | 29817 ft | 404 kts | 326° |
| 2026-04-27 11:13 | 55.95961 | -7.00301 | 30240 ft | 402 kts | 326° |
| 2026-04-27 11:13 | 55.98231 | -7.03190 | 30639 ft | 400 kts | 326° |
| 2026-04-27 11:13 | 56.00493 | -7.06071 | 30956 ft | 399 kts | 327° |
| 2026-04-27 11:14 | 56.02746 | -7.08946 | 31264 ft | 398 kts | 327° |
| 2026-04-27 11:14 | 56.04998 | -7.11824 | 31538 ft | 398 kts | 327° |
| 2026-04-27 11:14 | 56.07254 | -7.14709 | 31753 ft | 399 kts | 327° |
| 2026-04-27 11:14 | 56.09515 | -7.17606 | 31964 ft | 400 kts | 327° |
| 2026-04-27 11:15 | 56.11780 | -7.20512 | 32235 ft | 399 kts | 327° |
| 2026-04-27 11:15 | 56.14035 | -7.23411 | 32393 ft | 400 kts | 327° |
| 2026-04-27 11:15 | 56.18564 | -7.29245 | 32388 ft | 399 kts | 327° |
| 2026-04-27 11:16 | 56.23060 | -7.35055 | 32395 ft | 397 kts | 327° |
| 2026-04-27 11:16 | 56.27508 | -7.40819 | 32394 ft | 396 kts | 327° |
| 2026-04-27 11:17 | 56.31971 | -7.46617 | 32518 ft | 400 kts | 327° |
| 2026-04-27 11:17 | 56.34254 | -7.49590 | 32630 ft | 402 kts | 327° |
| 2026-04-27 11:17 | 56.36528 | -7.52555 | 32793 ft | 404 kts | 326° |
| 2026-04-27 11:18 | 56.38800 | -7.55525 | 33097 ft | 402 kts | 327° |
| 2026-04-27 11:18 | 56.41052 | -7.58472 | 33417 ft | 400 kts | 327° |
| 2026-04-27 11:18 | 56.43303 | -7.61424 | 33679 ft | 399 kts | 327° |
| 2026-04-27 11:18 | 56.45550 | -7.64373 | 33907 ft | 399 kts | 327° |
| 2026-04-27 11:19 | 56.47797 | -7.67325 | 34153 ft | 399 kts | 327° |
| 2026-04-27 11:19 | 56.50037 | -7.70274 | 34402 ft | 398 kts | 327° |
| 2026-04-27 11:19 | 56.52274 | -7.73224 | 34600 ft | 398 kts | 327° |
| 2026-04-27 11:19 | 56.54516 | -7.76183 | 34742 ft | 399 kts | 327° |
| 2026-04-27 11:20 | 56.56760 | -7.79150 | 34903 ft | 400 kts | 327° |
| 2026-04-27 11:20 | 56.59007 | -7.82126 | 35076 ft | 400 kts | 327° |
| 2026-04-27 11:20 | 56.61253 | -7.85103 | 35238 ft | 400 kts | 326° |
| 2026-04-27 11:20 | 56.63506 | -7.88096 | 35396 ft | 401 kts | 326° |
| 2026-04-27 11:21 | 56.65755 | -7.91087 | 35583 ft | 401 kts | 326° |
| 2026-04-27 11:21 | 56.68003 | -7.94082 | 35782 ft | 400 kts | 326° |
| 2026-04-27 11:21 | 56.70247 | -7.97076 | 35954 ft | 400 kts | 326° |
| 2026-04-27 11:21 | 56.72497 | -8.00083 | 36106 ft | 401 kts | 326° |
| 2026-04-27 11:22 | 56.74745 | -8.03091 | 36268 ft | 401 kts | 326° |
| 2026-04-27 11:22 | 56.76993 | -8.06104 | 36387 ft | 402 kts | 326° |
| 2026-04-27 11:22 | 56.81510 | -8.12171 | 36398 ft | 404 kts | 326° |
| 2026-04-27 11:23 | 56.86018 | -8.18247 | 36405 ft | 401 kts | 326° |
| 2026-04-27 11:23 | 56.90503 | -8.24309 | 36360 ft | 400 kts | 325° |
| 2026-04-27 11:24 | 56.94975 | -8.30372 | 36388 ft | 400 kts | 325° |
| 2026-04-27 11:24 | 56.99443 | -8.36447 | 36401 ft | 400 kts | 325° |
| 2026-04-27 11:25 | 57.03923 | -8.42558 | 36399 ft | 402 kts | 325° |
| 2026-04-27 11:25 | 57.08391 | -8.48670 | 36399 ft | 404 kts | 325° |
| 2026-04-27 11:26 | 57.12936 | -8.54908 | 36403 ft | 405 kts | 325° |
| 2026-04-27 11:26 | 57.17428 | -8.61093 | 36399 ft | 406 kts | 325° |
| 2026-04-27 11:27 | 57.21956 | -8.67347 | 36399 ft | 407 kts | 325° |
| 2026-04-27 11:27 | 57.26484 | -8.73621 | 36398 ft | 407 kts | 325° |
| 2026-04-27 11:28 | 57.31009 | -8.79910 | 36396 ft | 407 kts | 325° |
| 2026-04-27 11:28 | 57.35527 | -8.86210 | 36402 ft | 406 kts | 325° |
| 2026-04-27 11:29 | 57.40035 | -8.92514 | 36397 ft | 406 kts | 325° |
| 2026-04-27 11:29 | 57.44538 | -8.98832 | 36399 ft | 406 kts | 324° |
| 2026-04-27 11:30 | 57.49035 | -9.05161 | 36388 ft | 405 kts | 324° |
| 2026-04-27 11:30 | 57.53524 | -9.11499 | 36396 ft | 405 kts | 324° |
| 2026-04-27 11:31 | 57.58015 | -9.17861 | 36398 ft | 406 kts | 324° |
| 2026-04-27 11:31 | 57.62516 | -9.24256 | 36397 ft | 407 kts | 324° |
| 2026-04-27 11:32 | 57.67020 | -9.30677 | 36397 ft | 408 kts | 324° |
| 2026-04-27 11:32 | 57.71533 | -9.37130 | 36393 ft | 408 kts | 324° |
| 2026-04-27 11:33 | 57.76043 | -9.43601 | 36393 ft | 409 kts | 324° |
| 2026-04-27 11:33 | 57.80554 | -9.50094 | 36396 ft | 409 kts | 324° |
| 2026-04-27 11:34 | 57.85062 | -9.56604 | 36401 ft | 409 kts | 324° |
| 2026-04-27 11:34 | 57.89565 | -9.63128 | 36393 ft | 409 kts | 324° |
| 2026-04-27 11:35 | 57.94072 | -9.69678 | 36391 ft | 409 kts | 324° |
| 2026-04-27 11:35 | 57.98568 | -9.76235 | 36392 ft | 409 kts | 324° |
| 2026-04-27 11:36 | 58.03063 | -9.82811 | 36392 ft | 409 kts | 324° |
| 2026-04-27 11:36 | 58.07551 | -9.89404 | 36389 ft | 409 kts | 323° |
| 2026-04-27 11:37 | 58.12040 | -9.96011 | 36395 ft | 409 kts | 323° |
| 2026-04-27 11:37 | 58.16534 | -10.02647 | 36393 ft | 410 kts | 323° |
| 2026-04-27 11:38 | 58.21032 | -10.09315 | 36389 ft | 411 kts | 323° |
| 2026-04-27 11:38 | 58.25531 | -10.16004 | 36389 ft | 412 kts | 323° |
| 2026-04-27 11:39 | 58.29277 | -10.21593 | 36385 ft | 412 kts | 323° |
| 2026-04-27 11:39 | 58.33787 | -10.28342 | 36386 ft | 413 kts | 323° |
| 2026-04-27 11:40 | 58.38303 | -10.35120 | 36386 ft | 413 kts | 323° |
| 2026-04-27 11:40 | 58.42814 | -10.41916 | 36382 ft | 413 kts | 323° |
| 2026-04-27 11:41 | 58.47318 | -10.48724 | 36383 ft | 413 kts | 323° |
| 2026-04-27 11:41 | 58.51815 | -10.55544 | 36382 ft | 413 kts | 323° |
| 2026-04-27 11:42 | 58.56312 | -10.62386 | 36382 ft | 413 kts | 323° |
| 2026-04-27 11:42 | 58.60803 | -10.69243 | 36389 ft | 412 kts | 322° |
| 2026-04-27 11:43 | 58.65285 | -10.76116 | 36378 ft | 412 kts | 322° |
| 2026-04-27 11:43 | 58.69772 | -10.83011 | 36378 ft | 413 kts | 322° |
| 2026-04-27 11:44 | 58.74183 | -10.89810 | 36381 ft | 414 kts | 322° |
| 2026-04-27 11:44 | 58.78647 | -10.96717 | 36382 ft | 415 kts | 322° |
| 2026-04-27 11:45 | 58.83118 | -11.03660 | 36381 ft | 415 kts | 322° |
| 2026-04-27 11:45 | 58.87617 | -11.10669 | 36384 ft | 416 kts | 321° |
| 2026-04-27 11:46 | 58.92119 | -11.17708 | 36377 ft | 416 kts | 321° |
| 2026-04-27 11:46 | 58.96622 | -11.24773 | 36374 ft | 417 kts | 321° |
| 2026-04-27 11:47 | 59.01122 | -11.31858 | 36375 ft | 416 kts | 321° |
| 2026-04-27 11:47 | 59.05618 | -11.38962 | 36374 ft | 416 kts | 321° |
| 2026-04-27 11:48 | 59.10106 | -11.46076 | 36380 ft | 416 kts | 321° |
| 2026-04-27 11:48 | 59.14589 | -11.53209 | 36371 ft | 416 kts | 321° |
| 2026-04-27 11:49 | 59.19070 | -11.60363 | 36369 ft | 416 kts | 321° |
| 2026-04-27 11:49 | 59.23543 | -11.67537 | 36363 ft | 416 kts | 320° |
| 2026-04-27 11:50 | 59.28012 | -11.74718 | 36368 ft | 416 kts | 320° |
| 2026-04-27 11:50 | 59.32450 | -11.81875 | 36358 ft | 416 kts | 320° |
| 2026-04-27 11:51 | 59.36924 | -11.89117 | 36367 ft | 417 kts | 320° |
| 2026-04-27 11:52 | 59.43632 | -12.00025 | 36353 ft | 418 kts | 320° |
| 2026-04-27 11:52 | 59.48075 | -12.07284 | 36357 ft | 418 kts | 320° |
| 2026-04-27 11:53 | 59.52544 | -12.14609 | 36353 ft | 418 kts | 320° |
| 2026-04-27 11:53 | 59.57014 | -12.21963 | 36354 ft | 418 kts | 319° |
| 2026-04-27 11:54 | 59.61481 | -12.29337 | 36353 ft | 419 kts | 319° |
| 2026-04-27 11:54 | 59.65944 | -12.36732 | 36343 ft | 419 kts | 319° |
| 2026-04-27 11:55 | 59.70407 | -12.44153 | 36343 ft | 419 kts | 319° |
| 2026-04-27 11:55 | 59.74862 | -12.51589 | 36342 ft | 419 kts | 319° |
| 2026-04-27 11:56 | 59.79309 | -12.59041 | 36329 ft | 419 kts | 319° |
| 2026-04-27 11:56 | 59.83754 | -12.66512 | 36339 ft | 419 kts | 319° |
| 2026-04-27 11:57 | 59.88198 | -12.74008 | 36340 ft | 419 kts | 318° |
| 2026-04-27 11:57 | 59.92647 | -12.81541 | 36330 ft | 420 kts | 318° |
| 2026-04-27 11:58 | 59.97098 | -12.89105 | 36328 ft | 420 kts | 318° |
| 2026-04-27 11:58 | 60.01547 | -12.96693 | 36322 ft | 421 kts | 318° |
| 2026-04-27 11:59 | 60.06002 | -13.04320 | 36322 ft | 421 kts | 318° |
| 2026-04-27 11:59 | 60.10453 | -13.11968 | 36338 ft | 422 kts | 317° |
| 2026-04-27 12:00 | 60.14908 | -13.19653 | 36318 ft | 422 kts | 317° |
| 2026-04-27 12:00 | 60.19356 | -13.27353 | 36317 ft | 422 kts | 317° |
| 2026-04-27 12:01 | 60.23799 | -13.35072 | 36309 ft | 422 kts | 317° |
| 2026-04-27 12:01 | 60.28238 | -13.42812 | 36303 ft | 422 kts | 317° |
| 2026-04-27 12:02 | 60.32670 | -13.50571 | 36301 ft | 422 kts | 317° |
| 2026-04-27 12:02 | 60.37096 | -13.58348 | 36295 ft | 422 kts | 316° |
| 2026-04-27 12:03 | 60.41518 | -13.66146 | 36295 ft | 422 kts | 316° |
| 2026-04-27 12:03 | 60.45937 | -13.73970 | 36293 ft | 422 kts | 316° |
| 2026-04-27 12:04 | 60.50354 | -13.81819 | 36282 ft | 422 kts | 316° |
| 2026-04-27 12:04 | 60.54769 | -13.89693 | 36286 ft | 423 kts | 316° |
| 2026-04-27 12:05 | 60.59182 | -13.97595 | 36282 ft | 423 kts | 316° |
| 2026-04-27 12:05 | 60.63597 | -14.05532 | 36284 ft | 424 kts | 315° |
| 2026-04-27 12:06 | 60.67983 | -14.13443 | 36276 ft | 424 kts | 315° |
| 2026-04-27 12:06 | 60.72425 | -14.21486 | 36270 ft | 424 kts | 315° |
| 2026-04-27 12:07 | 60.76797 | -14.29435 | 36267 ft | 424 kts | 315° |
| 2026-04-27 12:07 | 60.81225 | -14.37514 | 36256 ft | 423 kts | 315° |
| 2026-04-27 12:08 | 60.85614 | -14.45554 | 36255 ft | 423 kts | 315° |
| 2026-04-27 12:08 | 60.89965 | -14.53556 | 36256 ft | 423 kts | 315° |
| 2026-04-27 12:09 | 60.94339 | -14.61631 | 36248 ft | 423 kts | 315° |
| 2026-04-27 12:09 | 60.98705 | -14.69722 | 36247 ft | 422 kts | 315° |
| 2026-04-27 12:10 | 61.03070 | -14.77841 | 36249 ft | 422 kts | 315° |
| 2026-04-27 12:10 | 61.07423 | -14.85971 | 36242 ft | 422 kts | 315° |
| 2026-04-27 12:11 | 61.11773 | -14.94125 | 36248 ft | 422 kts | 314° |
| 2026-04-27 12:11 | 61.16115 | -15.02298 | 36238 ft | 422 kts | 314° |
| 2026-04-27 12:12 | 61.20457 | -15.10503 | 36224 ft | 422 kts | 314° |
| 2026-04-27 12:12 | 61.24790 | -15.18721 | 36225 ft | 422 kts | 314° |
| 2026-04-27 12:13 | 61.29121 | -15.26968 | 36223 ft | 422 kts | 314° |
| 2026-04-27 12:13 | 61.33442 | -15.35229 | 36211 ft | 422 kts | 314° |
| 2026-04-27 12:14 | 61.37762 | -15.43520 | 36220 ft | 422 kts | 314° |
| 2026-04-27 12:14 | 61.42080 | -15.51840 | 36211 ft | 422 kts | 313° |
| 2026-04-27 12:15 | 61.46391 | -15.60179 | 36202 ft | 422 kts | 313° |
| 2026-04-27 12:15 | 61.50694 | -15.68537 | 36190 ft | 422 kts | 313° |
| 2026-04-27 12:16 | 61.54968 | -15.76878 | 36193 ft | 423 kts | 313° |
| 2026-04-27 12:16 | 61.59271 | -15.85295 | 36193 ft | 423 kts | 313° |
| 2026-04-27 12:17 | 61.63576 | -15.93753 | 36194 ft | 424 kts | 312° |
| 2026-04-27 12:17 | 61.67889 | -16.02263 | 36190 ft | 425 kts | 312° |
| 2026-04-27 12:18 | 61.72205 | -16.10813 | 36173 ft | 426 kts | 312° |
| 2026-04-27 12:18 | 61.76518 | -16.19392 | 36166 ft | 426 kts | 312° |
| 2026-04-27 12:19 | 61.80832 | -16.28007 | 36159 ft | 427 kts | 312° |
| 2026-04-27 12:19 | 61.85141 | -16.36649 | 36161 ft | 427 kts | 312° |
| 2026-04-27 12:20 | 61.89448 | -16.45319 | 36167 ft | 427 kts | 311° |
| 2026-04-27 12:20 | 61.93747 | -16.54011 | 36154 ft | 427 kts | 311° |
| 2026-04-27 12:21 | 61.97756 | -16.62149 | 36150 ft | 426 kts | 311° |
| 2026-04-27 12:21 | 62.02036 | -16.70872 | 36141 ft | 426 kts | 311° |
| 2026-04-27 12:22 | 62.06306 | -16.79609 | 36139 ft | 425 kts | 311° |
| 2026-04-27 12:22 | 62.10565 | -16.88367 | 36159 ft | 425 kts | 310° |
| 2026-04-27 12:23 | 62.14835 | -16.97173 | 36142 ft | 427 kts | 310° |
| 2026-04-27 12:23 | 62.19105 | -17.06018 | 36132 ft | 428 kts | 310° |
| 2026-04-27 12:24 | 62.23384 | -17.14919 | 36118 ft | 429 kts | 310° |
| 2026-04-27 12:24 | 62.26944 | -17.22353 | 36118 ft | 430 kts | 310° |
| 2026-04-27 12:25 | 62.31234 | -17.31346 | 36114 ft | 431 kts | 310° |
| 2026-04-27 12:25 | 62.35525 | -17.40379 | 36141 ft | 432 kts | 310° |
| 2026-04-27 12:26 | 62.39818 | -17.49456 | 36112 ft | 433 kts | 310° |
| 2026-04-27 12:26 | 62.44115 | -17.58578 | 36094 ft | 433 kts | 309° |
| 2026-04-27 12:27 | 62.48400 | -17.67711 | 36095 ft | 433 kts | 309° |
| 2026-04-27 12:27 | 62.52678 | -17.76871 | 36087 ft | 432 kts | 309° |
| 2026-04-27 12:28 | 62.56944 | -17.86044 | 36087 ft | 432 kts | 309° |
| 2026-04-27 12:28 | 62.61198 | -17.95232 | 36093 ft | 432 kts | 309° |
| 2026-04-27 12:29 | 62.65447 | -18.04459 | 36079 ft | 432 kts | 308° |
| 2026-04-27 12:29 | 62.69692 | -18.13706 | 36073 ft | 432 kts | 308° |
| 2026-04-27 12:30 | 62.73748 | -18.22571 | 36072 ft | 433 kts | 308° |
| 2026-04-27 12:30 | 62.77992 | -18.31892 | 36068 ft | 433 kts | 308° |
| 2026-04-27 12:31 | 62.82212 | -18.41201 | 36069 ft | 434 kts | 308° |
| 2026-04-27 12:31 | 62.86487 | -18.50675 | 36062 ft | 436 kts | 307° |
| 2026-04-27 12:32 | 62.90712 | -18.60081 | 36054 ft | 436 kts | 307° |
| 2026-04-27 12:32 | 62.94967 | -18.69586 | 36048 ft | 436 kts | 307° |
| 2026-04-27 12:33 | 62.99090 | -18.79302 | 36032 ft | 430 kts | 301° |
| 2026-04-27 12:33 | 63.02597 | -18.89915 | 36034 ft | 428 kts | 298° |
| 2026-04-27 12:34 | 63.06017 | -19.00638 | 36036 ft | 428 kts | 298° |
| 2026-04-27 12:34 | 63.09464 | -19.11352 | 36038 ft | 428 kts | 298° |
| 2026-04-27 12:35 | 63.12919 | -19.22033 | 36061 ft | 428 kts | 298° |
| 2026-04-27 12:35 | 63.16381 | -19.32756 | 36039 ft | 428 kts | 298° |
| 2026-04-27 12:36 | 63.19810 | -19.43425 | 35411 ft | 435 kts | 298° |
| 2026-04-27 12:36 | 63.21553 | -19.48865 | 34842 ft | 433 kts | 297° |
| 2026-04-27 12:36 | 63.23032 | -19.53491 | 34316 ft | 432 kts | 297° |
| 2026-04-27 12:36 | 63.24733 | -19.58822 | 33644 ft | 433 kts | 297° |
| 2026-04-27 12:37 | 63.26350 | -19.63905 | 32979 ft | 433 kts | 297° |
| 2026-04-27 12:37 | 63.28087 | -19.69377 | 32288 ft | 433 kts | 297° |
| 2026-04-27 12:37 | 63.29819 | -19.74846 | 31575 ft | 433 kts | 297° |
| 2026-04-27 12:37 | 63.31552 | -19.80332 | 30861 ft | 434 kts | 297° |
| 2026-04-27 12:38 | 63.33287 | -19.85841 | 30150 ft | 435 kts | 297° |
| 2026-04-27 12:38 | 63.35025 | -19.91373 | 29284 ft | 437 kts | 297° |
| 2026-04-27 12:38 | 63.36744 | -19.96857 | 28467 ft | 438 kts | 297° |
| 2026-04-27 12:38 | 63.38487 | -20.02425 | 27640 ft | 438 kts | 297° |
| 2026-04-27 12:39 | 63.40231 | -20.08015 | 26801 ft | 439 kts | 297° |
| 2026-04-27 12:39 | 63.41974 | -20.13611 | 25926 ft | 440 kts | 297° |
| 2026-04-27 12:39 | 63.43713 | -20.19209 | 25310 ft | 435 kts | 297° |
| 2026-04-27 12:39 | 63.45429 | -20.24738 | 24688 ft | 431 kts | 297° |
| 2026-04-27 12:40 | 63.47147 | -20.30291 | 24080 ft | 426 kts | 297° |
| 2026-04-27 12:40 | 63.48821 | -20.35724 | 23476 ft | 423 kts | 296° |
| 2026-04-27 12:40 | 63.50482 | -20.41130 | 22763 ft | 419 kts | 296° |
| 2026-04-27 12:40 | 63.52102 | -20.46408 | 22183 ft | 415 kts | 296° |
| 2026-04-27 12:41 | 63.53725 | -20.51710 | 21549 ft | 411 kts | 296° |
| 2026-04-27 12:41 | 63.55355 | -20.57046 | 20938 ft | 407 kts | 296° |
| 2026-04-27 12:41 | 63.56801 | -20.62327 | 20318 ft | 399 kts | 290° |
| 2026-04-27 12:41 | 63.58042 | -20.67845 | 19752 ft | 393 kts | 288° |
| 2026-04-27 12:42 | 63.59208 | -20.73365 | 19169 ft | 390 kts | 288° |
| 2026-04-27 12:42 | 63.60369 | -20.78858 | 18582 ft | 388 kts | 288° |
| 2026-04-27 12:42 | 63.61526 | -20.84235 | 17984 ft | 386 kts | 289° |
| 2026-04-27 12:42 | 63.62705 | -20.89629 | 17351 ft | 384 kts | 289° |
| 2026-04-27 12:43 | 63.63842 | -20.94786 | 16786 ft | 381 kts | 289° |
| 2026-04-27 12:43 | 63.65014 | -21.00096 | 16209 ft | 378 kts | 289° |
| 2026-04-27 12:43 | 63.66175 | -21.05368 | 15640 ft | 373 kts | 289° |
| 2026-04-27 12:43 | 63.67487 | -21.10400 | 15073 ft | 375 kts | 298° |
| 2026-04-27 12:44 | 63.69105 | -21.14988 | 14526 ft | 375 kts | 302° |
| 2026-04-27 12:44 | 63.70795 | -21.19577 | 13985 ft | 389 kts | 302° |
| 2026-04-27 12:44 | 63.72539 | -21.24341 | 13325 ft | 396 kts | 302° |
| 2026-04-27 12:44 | 63.74263 | -21.29081 | 12742 ft | 383 kts | 302° |
| 2026-04-27 12:45 | 63.75911 | -21.33666 | 12137 ft | 370 kts | 301° |
| 2026-04-27 12:45 | 63.77488 | -21.38107 | 11792 ft | 353 kts | 301° |
| 2026-04-27 12:45 | 63.78980 | -21.42336 | 11573 ft | 335 kts | 300° |
| 2026-04-27 12:45 | 63.80388 | -21.46352 | 11435 ft | 317 kts | 300° |
| 2026-04-27 12:46 | 63.81726 | -21.50179 | 11276 ft | 302 kts | 299° |
| 2026-04-27 12:46 | 63.83001 | -21.53828 | 11138 ft | 288 kts | 298° |
| 2026-04-27 12:46 | 63.84212 | -21.57297 | 11012 ft | 274 kts | 298° |
| 2026-04-27 12:46 | 63.85367 | -21.60608 | 10904 ft | 263 kts | 298° |
| 2026-04-27 12:47 | 63.86612 | -21.63628 | 10902 ft | 271 kts | 316° |
| 2026-04-27 12:47 | 63.88400 | -21.65409 | 10920 ft | 294 kts | 341° |
| 2026-04-27 12:47 | 63.90493 | -21.65581 | 10907 ft | 311 kts | 7° |
| 2026-04-27 12:47 | 63.92515 | -21.63797 | 10894 ft | 315 kts | 36° |
| 2026-04-27 12:48 | 63.93975 | -21.60232 | 10899 ft | 305 kts | 67° |
| 2026-04-27 12:48 | 63.94571 | -21.55776 | 10901 ft | 288 kts | 96° |
| 2026-04-27 12:48 | 63.94349 | -21.51402 | 10906 ft | 272 kts | 117° |
| 2026-04-27 12:48 | 63.93562 | -21.47640 | 10912 ft | 257 kts | 135° |
| 2026-04-27 12:49 | 63.92493 | -21.44405 | 10902 ft | 257 kts | 139° |
| 2026-04-27 12:49 | 63.91374 | -21.41225 | 10914 ft | 258 kts | 139° |
| 2026-04-27 12:49 | 63.90246 | -21.38015 | 10936 ft | 262 kts | 138° |
| 2026-04-27 12:49 | 63.89112 | -21.34763 | 10930 ft | 263 kts | 138° |
| 2026-04-27 12:50 | 63.87818 | -21.32031 | 10919 ft | 246 kts | 161° |
| 2026-04-27 12:50 | 63.86263 | -21.30751 | 10926 ft | 233 kts | 177° |
| 2026-04-27 12:50 | 63.84678 | -21.30602 | 10928 ft | 225 kts | 192° |
| 2026-04-27 12:50 | 63.83192 | -21.31527 | 10909 ft | 221 kts | 207° |
| 2026-04-27 12:51 | 63.82001 | -21.33799 | 10629 ft | 245 kts | 231° |
| 2026-04-27 12:51 | 63.81221 | -21.37568 | 10407 ft | 287 kts | 252° |
| 2026-04-27 12:51 | 63.81183 | -21.42331 | 10178 ft | 320 kts | 275° |
| 2026-04-27 12:51 | 63.82032 | -21.47058 | 9968 ft | 320 kts | 294° |
| 2026-04-27 12:52 | 63.83259 | -21.51049 | 9916 ft | 304 kts | 297° |
| 2026-04-27 12:52 | 63.84469 | -21.54792 | 9893 ft | 284 kts | 297° |
| 2026-04-27 12:52 | 63.85586 | -21.58307 | 9886 ft | 266 kts | 295° |
| 2026-04-27 12:52 | 63.86621 | -21.61660 | 9900 ft | 258 kts | 294° |
| 2026-04-27 12:53 | 63.88630 | -21.68367 | 9902 ft | 256 kts | 294° |
| 2026-04-27 12:53 | 63.89621 | -21.71708 | 9907 ft | 255 kts | 294° |
| 2026-04-27 12:53 | 63.90607 | -21.75045 | 9893 ft | 255 kts | 293° |
| 2026-04-27 12:54 | 63.91592 | -21.78378 | 9875 ft | 253 kts | 293° |
| 2026-04-27 12:54 | 63.92630 | -21.81678 | 9592 ft | 263 kts | 297° |
| 2026-04-27 12:54 | 63.93766 | -21.84980 | 9240 ft | 265 kts | 298° |
| 2026-04-27 12:54 | 63.94905 | -21.88244 | 8878 ft | 262 kts | 298° |
| 2026-04-27 12:55 | 63.96031 | -21.91482 | 8594 ft | 260 kts | 297° |
| 2026-04-27 12:55 | 63.97149 | -21.94724 | 8238 ft | 260 kts | 297° |
| 2026-04-27 12:55 | 63.98261 | -21.97980 | 7874 ft | 260 kts | 297° |
| 2026-04-27 12:55 | 63.99368 | -22.01229 | 7524 ft | 259 kts | 296° |
| 2026-04-27 12:56 | 64.00469 | -22.04469 | 7176 ft | 257 kts | 296° |
| 2026-04-27 12:56 | 64.01556 | -22.07664 | 6849 ft | 253 kts | 296° |
| 2026-04-27 12:56 | 64.02624 | -22.10796 | 6582 ft | 247 kts | 296° |
| 2026-04-27 12:56 | 64.03664 | -22.13845 | 6327 ft | 240 kts | 295° |
| 2026-04-27 12:57 | 64.04676 | -22.16823 | 6073 ft | 236 kts | 295° |
| 2026-04-27 12:57 | 64.05680 | -22.19791 | 5821 ft | 237 kts | 295° |
| 2026-04-27 12:57 | 64.06684 | -22.22762 | 5676 ft | 236 kts | 296° |
| 2026-04-27 12:57 | 64.07697 | -22.25769 | 5485 ft | 242 kts | 296° |
| 2026-04-27 12:58 | 64.08745 | -22.28894 | 5002 ft | 252 kts | 297° |
| 2026-04-27 12:58 | 64.09918 | -22.31943 | 4478 ft | 264 kts | 311° |
| 2026-04-27 12:58 | 64.11423 | -22.34455 | 3989 ft | 269 kts | 317° |
| 2026-04-27 12:58 | 64.13001 | -22.36772 | 3629 ft | 272 kts | 332° |
| 2026-04-27 12:59 | 64.14849 | -22.37623 | 3485 ft | 270 kts | 355° |
| 2026-04-27 12:59 | 64.16694 | -22.37977 | 3315 ft | 263 kts | 342° |
| 2026-04-27 12:59 | 64.18227 | -22.40083 | 3046 ft | 260 kts | 300° |
| 2026-04-27 12:59 | 64.18894 | -22.43815 | 2848 ft | 252 kts | 266° |
| 2026-04-27 13:00 | 64.18779 | -22.47742 | 2646 ft | 242 kts | 246° |
| 2026-04-27 13:00 | 64.18139 | -22.51135 | 2602 ft | 223 kts | 229° |
| 2026-04-27 13:00 | 64.17148 | -22.53556 | 2620 ft | 203 kts | 214° |
| 2026-04-27 13:00 | 64.16090 | -22.55579 | 2566 ft | 195 kts | 214° |
| 2026-04-27 13:01 | 64.15064 | -22.57525 | 2540 ft | 189 kts | 213° |
| 2026-04-27 13:01 | 64.14042 | -22.59395 | 2331 ft | 188 kts | 206° |
| 2026-04-27 13:01 | 64.12836 | -22.60284 | 2260 ft | 184 kts | 185° |
| 2026-04-27 13:01 | 64.11532 | -22.60480 | 2223 ft | 189 kts | 181° |
| 2026-04-27 13:02 | 64.10225 | -22.60519 | 2230 ft | 186 kts | 180° |
| 2026-04-27 13:02 | 64.08923 | -22.60520 | 2146 ft | 190 kts | 181° |
| 2026-04-27 13:02 | 64.07591 | -22.60521 | 1908 ft | 191 kts | 180° |
| 2026-04-27 13:02 | 64.06290 | -22.60526 | 1663 ft | 185 kts | 181° |
| 2026-04-27 13:03 | 64.05038 | -22.60530 | 1390 ft | 175 kts | 180° |
| 2026-04-27 13:03 | 64.03847 | -22.60528 | 1157 ft | 167 kts | 180° |
| 2026-04-27 13:03 | 64.02752 | -22.60532 | 931 ft | 149 kts | 179° |
| 2026-04-27 13:03 | 64.01776 | -22.60534 | 719 ft | 134 kts | 178° |
| 2026-04-27 13:04 | 64.00856 | -22.60536 | 561 ft | 135 kts | 176° |
| 2026-04-27 13:04 | 63.99925 | -22.60537 | 367 ft | 133 kts | 177° |
| 2026-04-27 13:04 | 63.99033 | -22.60541 | 198 ft | 123 kts | 176° |
| 2026-04-27 13:04 | 63.98283 | -22.60540 | 172 ft | 82 kts | 180° |
| 2026-04-27 13:05 | 63.97871 | -22.60541 | 170 ft | 48 kts | 180° |
| 2026-04-27 13:05 | 63.97635 | -22.60547 | 172 ft | 30 kts | 180° |
| 2026-04-27 13:05 | 63.97464 | -22.60587 | 171 ft | 19 kts | 216° |
| 2026-04-27 13:05 | 63.97442 | -22.60774 | 167 ft | 9 kts | 284° |
| 2026-04-27 13:06 | 63.97450 | -22.60846 | 166 ft | 0 kts | 283° |
| 2026-04-27 13:06 | 63.97470 | -22.60916 | 165 ft | 12 kts | 323° |
| 2026-04-27 13:06 | 63.97562 | -22.60940 | 166 ft | 13 kts | 360° |
| 2026-04-27 13:07 | 63.97653 | -22.60939 | 167 ft | 13 kts | 0° |
| 2026-04-27 13:07 | 63.97742 | -22.60938 | 168 ft | 13 kts | 360° |
| 2026-04-27 13:07 | 63.97828 | -22.60938 | 169 ft | 12 kts | 0° |
| 2026-04-27 13:07 | 63.97912 | -22.60938 | 168 ft | 12 kts | 360° |
| 2026-04-27 13:08 | 63.97994 | -22.60939 | 168 ft | 12 kts | 360° |
| 2026-04-27 13:08 | 63.98073 | -22.60939 | 167 ft | 11 kts | 0° |
| 2026-04-27 13:08 | 63.98157 | -22.60939 | 165 ft | 14 kts | 0° |
| 2026-04-27 13:08 | 63.98263 | -22.60940 | 164 ft | 15 kts | 359° |
| 2026-04-27 13:09 | 63.98369 | -22.60939 | 165 ft | 15 kts | 1° |
| 2026-04-27 13:09 | 63.98470 | -22.60938 | 166 ft | 14 kts | 0° |
| 2026-04-27 13:09 | 63.98568 | -22.60937 | 165 ft | 14 kts | 0° |
| 2026-04-27 13:09 | 63.98670 | -22.60936 | 163 ft | 15 kts | 0° |
| 2026-04-27 13:10 | 63.98773 | -22.60937 | 162 ft | 15 kts | 360° |
| 2026-04-27 13:10 | 63.98873 | -22.60938 | 165 ft | 14 kts | 0° |
| 2026-04-27 13:10 | 63.98971 | -22.60936 | 167 ft | 14 kts | 0° |
| 2026-04-27 13:10 | 63.99063 | -22.60934 | 165 ft | 13 kts | 1° |
| 2026-04-27 13:11 | 63.99149 | -22.60936 | 161 ft | 10 kts | 348° |
| 2026-04-27 13:11 | 63.99173 | -22.61068 | 158 ft | 10 kts | 269° |
| 2026-04-27 13:11 | 63.99172 | -22.61222 | 154 ft | 10 kts | 268° |
| 2026-04-27 13:11 | 63.99171 | -22.61376 | 151 ft | 10 kts | 271° |
| 2026-04-27 13:12 | 63.99171 | -22.61498 | 149 ft | 14 kts | 270° |
| 2026-04-27 13:12 | 63.99170 | -22.61750 | 143 ft | 16 kts | 269° |
| 2026-04-27 13:12 | 63.99178 | -22.61963 | 140 ft | 11 kts | 303° |
| 2026-04-27 13:12 | 63.99247 | -22.61985 | 140 ft | 10 kts | 2° |
| 2026-04-27 13:13 | 63.99311 | -22.61987 | 142 ft | 6 kts | 352° |
| 2026-04-27 13:13 | 63.99328 | -22.62069 | 140 ft | 6 kts | 269° |
| 2026-04-27 13:13 | 63.99327 | -22.62131 | 140 ft | 0 kts | 269° |
| 2026-04-27 13:13 | 63.99327 | -22.62154 | 140 ft | 1 kts | 269° |
| 2026-04-27 13:14 | 63.99327 | -22.62156 | 140 ft | 0 kts | 269° |